Willard, Kentucky
Current Conditions -  °F | °C
As of 4:51 PM on Monday 20 Oct 2014 (Local Time) from KHTS Reporting Station
Overcast Overcast  
Wind Chill: 58°   Ceiling: 10000
Heat Index: 58°   Visibility: 9mi
Dew Point: 46°   Wind: 12mph
Humidity: 65%   Direction: 210°SSW
Pressure: 29.92"   Gusts: NA
Location:  38.21°N, 82.9°W
Report Text: KHTS 202051Z 21010KT 9SM OVC100 14/08 A2992 RMK AO2 SLP132 T01440078 56015
Loading
Personal Weather Stations






























Interactive Weather Map
Tropical Storm Tracking
New forecast layout! Learn more

10-Day Weather Forecast

Advertisements
Track Severe Weather on mobile